Time;durP1;ratioP1;P1;durP2;ratioP2;P2;SDS_P1;SDS_P2;PMS_P1;PMS_P2;Temp;Humidity;BMP_temperature;BMP_pressure;BME280_temperature;BME280_humidity;BME280_pressure;Samples;Min_cycle;Max_cycle;Signal;HPM_P1;HPM_P2
2022/11/05 00:09:31;;;;;;;11.13;5.33;;;9.90;98.00;;;;;;5031366;28;20291;-81
2022/11/05 00:17:48;;;;;;;9.87;5.63;;;9.60;99.90;;;;;;5030977;28;20185;-88
2022/11/05 00:20:14;;;;;;;9.50;5.00;;;9.70;99.90;;;;;;5030020;28;20209;-88
2022/11/05 00:25:29;;;;;;;7.33;4.50;;;9.70;99.90;;;;;;5034719;28;20246;-88
2022/11/05 00:28:02;;;;;;;9.80;4.70;;;9.70;99.90;;;;;;5030802;28;20221;-86
2022/11/05 00:30:34;;;;;;;8.97;5.00;;;9.70;99.90;;;;;;5029155;28;20322;-86
2022/11/05 00:33:02;;;;;;;6.60;4.70;;;9.70;99.90;;;;;;5029142;28;20229;-87
2022/11/05 00:35:27;;;;;;;7.67;4.80;;;9.70;99.90;;;;;;5027039;28;20185;-88
2022/11/05 00:37:54;;;;;;;6.33;4.60;;;9.60;99.90;;;;;;5028587;28;20183;-89
2022/11/05 00:40:23;;;;;;;7.83;4.97;;;9.70;99.90;;;;;;5027908;28;20169;-87
2022/11/05 00:45:36;;;;;;;7.27;4.77;;;9.50;99.90;;;;;;5029764;28;20646;-83
2022/11/05 00:50:48;;;;;;;8.77;4.90;;;9.50;99.90;;;;;;5030740;28;20234;-84
2022/11/05 00:53:15;;;;;;;8.77;5.27;;;9.50;99.90;;;;;;5029611;28;20226;-86
2022/11/05 00:55:48;;;;;;;6.53;4.73;;;9.50;99.90;;;;;;5035202;28;20166;-81
2022/11/05 00:58:19;;;;;;;9.10;5.10;;;9.30;99.90;;;;;;5019793;28;20213;-84
2022/11/05 01:00:54;;;;;;;7.53;4.90;;;9.30;99.90;;;;;;5036916;28;20154;-86
2022/11/05 01:03:44;;;;;;;8.67;4.73;;;9.40;99.90;;;;;;5036296;28;20193;-78
2022/11/05 01:06:14;;;;;;;7.47;4.30;;;9.50;99.90;;;;;;5036225;28;20201;-80
2022/11/05 01:08:43;;;;;;;9.00;5.07;;;9.40;99.90;;;;;;5036969;28;20266;-77
2022/11/05 01:11:32;;;;;;;9.67;5.10;;;9.30;99.90;;;;;;5037545;28;20162;-78
2022/11/05 01:14:14;;;;;;;9.60;5.13;;;9.30;99.90;;;;;;5037281;28;20650;-81
2022/11/05 01:16:41;;;;;;;9.43;5.33;;;9.30;99.90;;;;;;5036391;28;20206;-80
2022/11/05 01:19:09;;;;;;;8.97;5.10;;;9.30;99.90;;;;;;5035231;28;20171;-87
2022/11/05 01:21:34;;;;;;;6.73;5.07;;;9.30;99.90;;;;;;5021793;28;20203;-84
2022/11/05 01:24:12;;;;;;;10.77;5.00;;;9.20;99.90;;;;;;5022379;28;20166;-80
2022/11/05 01:26:41;;;;;;;8.80;4.73;;;9.20;99.90;;;;;;5022966;28;20170;-84
2022/11/05 01:29:09;;;;;;;9.83;5.40;;;9.10;99.90;;;;;;5023344;28;20226;-87
2022/11/05 01:31:35;;;;;;;7.53;4.87;;;9.10;99.90;;;;;;5023627;28;20217;-83
2022/11/05 01:34:01;;;;;;;10.90;5.07;;;9.10;99.90;;;;;;5035624;28;20178;-83
2022/11/05 01:36:30;;;;;;;7.90;4.90;;;9.10;99.90;;;;;;5038542;28;20183;-80
2022/11/05 01:42:23;;;;;;;9.70;5.53;;;9.00;99.90;;;;;;5029306;28;20169;-88
2022/11/05 01:45:25;;;;;;;12.07;6.10;;;9.00;99.90;;;;;;5023067;28;20204;-87
2022/11/05 01:48:07;;;;;;;9.43;5.83;;;9.00;99.90;;;;;;5018221;28;20201;-86
2022/11/05 01:51:00;;;;;;;10.27;5.67;;;8.90;99.90;;;;;;5019750;28;20163;-86
2022/11/05 01:53:29;;;;;;;8.17;5.53;;;8.80;99.90;;;;;;5018488;28;20217;-86
2022/11/05 01:56:00;;;;;;;10.10;5.80;;;8.80;99.90;;;;;;5030642;28;20162;-86
2022/11/05 01:58:33;;;;;;;10.67;5.73;;;8.60;99.90;;;;;;5036083;28;20174;-85
2022/11/05 02:00:59;;;;;;;9.00;5.57;;;8.70;99.90;;;;;;5035766;28;20196;-82
2022/11/05 02:03:26;;;;;;;11.20;6.13;;;8.70;99.90;;;;;;5038502;28;20178;-85
2022/11/05 02:05:53;;;;;;;8.40;6.13;;;8.60;99.90;;;;;;5025305;28;20194;-81
2022/11/05 02:08:50;;;;;;;7.70;5.70;;;8.70;99.90;;;;;;5015904;28;20217;-80
2022/11/05 02:11:19;;;;;;;11.20;6.53;;;8.50;99.90;;;;;;5015019;28;20163;-80
2022/11/05 02:13:49;;;;;;;9.87;6.27;;;8.40;99.90;;;;;;5014203;28;20213;-79
2022/11/05 02:16:26;;;;;;;11.93;6.77;;;8.50;99.90;;;;;;5014045;28;20168;-81
2022/11/05 02:18:59;;;;;;;13.13;6.70;;;8.40;99.90;;;;;;5014231;28;20213;-81
2022/11/05 02:21:58;;;;;;;10.23;6.73;;;8.30;99.90;;;;;;5014074;28;20163;-81
2022/11/05 02:25:01;;;;;;;11.10;6.97;;;8.30;99.90;;;;;;5012684;28;20201;-81
2022/11/05 02:27:38;;;;;;;10.37;7.13;;;8.30;99.90;;;;;;5012547;28;20209;-80
2022/11/05 02:30:17;;;;;;;13.73;7.47;;;8.20;99.90;;;;;;5014083;28;20197;-79
2022/11/05 02:32:49;;;;;;;10.27;7.73;;;8.20;99.90;;;;;;5013641;28;20182;-79
2022/11/05 02:35:30;;;;;;;11.20;7.80;;;8.10;99.90;;;;;;5012326;28;20170;-81
2022/11/05 02:38:15;;;;;;;10.27;7.63;;;8.20;99.90;;;;;;5013455;28;20169;-81
2022/11/05 02:41:15;;;;;;;10.10;7.20;;;8.20;99.90;;;;;;5013452;28;20645;-79
2022/11/05 02:43:41;;;;;;;13.20;7.47;;;8.10;99.90;;;;;;5005027;28;20198;-79
2022/11/05 02:46:36;;;;;;;13.27;7.23;;;8.10;99.90;;;;;;5013573;28;20170;-81
2022/11/05 02:49:17;;;;;;;11.73;7.63;;;8.00;99.90;;;;;;5000108;28;20225;-79
2022/11/05 02:51:56;;;;;;;9.93;7.47;;;8.00;99.90;;;;;;5012942;28;20178;-81
2022/11/05 02:54:55;;;;;;;13.63;8.03;;;7.90;99.90;;;;;;5013405;28;20216;-82
2022/11/05 02:57:21;;;;;;;16.53;8.33;;;8.00;99.90;;;;;;5011528;28;20565;-83
2022/11/05 02:59:48;;;;;;;12.53;8.57;;;8.00;99.90;;;;;;5013296;28;20177;-79
2022/11/05 03:02:13;;;;;;;16.43;8.90;;;8.10;99.90;;;;;;5011692;28;20213;-79
2022/11/05 03:04:40;;;;;;;14.87;9.03;;;8.10;99.90;;;;;;5016965;28;20175;-79
2022/11/05 03:07:28;;;;;;;13.00;8.57;;;8.00;99.90;;;;;;5017192;28;20296;-78
2022/11/05 03:10:06;;;;;;;14.40;8.70;;;7.90;99.90;;;;;;5017501;28;20170;-78
2022/11/05 03:13:15;;;;;;;18.73;9.60;;;8.00;99.90;;;;;;5015758;28;20182;-79
2022/11/05 03:15:55;;;;;;;14.00;8.70;;;8.00;99.90;;;;;;4959361;28;20314;-80
2022/11/05 03:18:25;;;;;;;12.43;9.00;;;7.90;99.90;;;;;;4988138;28;20277;-79
2022/11/05 03:21:03;;;;;;;11.77;9.07;;;8.10;99.90;;;;;;5017279;28;20189;-78
2022/11/05 03:23:34;;;;;;;15.00;10.23;;;8.00;99.90;;;;;;5017210;28;20257;-79
2022/11/05 03:26:22;;;;;;;17.47;9.43;;;8.10;99.90;;;;;;5016902;28;20175;-80
2022/11/05 03:29:13;;;;;;;14.03;9.47;;;7.90;99.90;;;;;;5017108;28;20224;-79
2022/11/05 03:31:40;;;;;;;13.57;9.73;;;7.80;99.90;;;;;;5016235;28;20205;-80
2022/11/05 03:34:07;;;;;;;11.97;8.93;;;7.70;99.90;;;;;;5016058;28;20184;-85
2022/11/05 03:36:47;;;;;;;13.17;9.80;;;7.90;99.90;;;;;;5017304;28;20225;-80
2022/11/05 03:39:23;;;;;;;15.17;10.10;;;7.90;99.90;;;;;;5016654;28;20224;-81
2022/11/05 03:41:51;;;;;;;16.00;10.40;;;7.70;99.90;;;;;;5015234;28;20624;-79
2022/11/05 03:44:25;;;;;;;12.33;10.00;;;7.60;99.90;;;;;;5017199;28;20213;-80
2022/11/05 03:46:55;;;;;;;15.37;9.77;;;7.70;99.90;;;;;;5016863;28;20281;-79
2022/11/05 03:49:26;;;;;;;14.40;9.60;;;7.60;99.90;;;;;;5016723;28;20681;-83
2022/11/05 03:52:05;;;;;;;14.97;9.77;;;7.50;99.90;;;;;;5016079;28;20174;-83
2022/11/05 03:54:32;;;;;;;14.43;10.23;;;7.50;99.90;;;;;;5017148;28;20182;-83
2022/11/05 03:57:04;;;;;;;11.73;9.67;;;7.60;99.90;;;;;;5017087;28;20248;-83
2022/11/05 03:59:37;;;;;;;13.33;10.33;;;7.60;99.90;;;;;;5016579;28;20170;-80
2022/11/05 04:02:02;;;;;;;22.37;10.47;;;7.40;99.90;;;;;;5016626;28;20693;-79
2022/11/05 04:04:28;;;;;;;12.63;9.90;;;7.50;99.90;;;;;;5015586;28;20179;-84
2022/11/05 04:15:07;;;;;;;17.87;11.67;;;7.70;99.90;;;;;;5015174;28;20707;-82
2022/11/05 04:17:33;;;;;;;18.93;10.73;;;7.60;99.90;;;;;;5014172;28;20178;-82
2022/11/05 04:25:29;;;;;;;13.33;10.13;;;7.30;99.90;;;;;;5015213;28;20173;-81
2022/11/05 04:27:59;;;;;;;15.90;10.50;;;7.50;99.90;;;;;;5015040;28;20206;-82
2022/11/05 04:30:25;;;;;;;15.93;10.60;;;7.60;99.90;;;;;;5019279;28;20193;-78
2022/11/05 04:33:04;;;;;;;15.93;11.97;;;7.70;99.90;;;;;;5023511;28;20174;-78
2022/11/05 04:35:41;;;;;;;18.07;11.53;;;7.70;99.90;;;;;;5036751;28;20168;-80
2022/11/05 04:38:09;;;;;;;18.60;10.73;;;7.70;99.90;;;;;;5037700;28;20166;-78
2022/11/05 04:40:35;;;;;;;15.63;10.40;;;7.60;99.90;;;;;;5036861;28;20504;-78
2022/11/05 04:43:04;;;;;;;16.13;10.80;;;7.60;99.90;;;;;;5024043;28;20174;-78
2022/11/05 04:45:43;;;;;;;17.83;11.47;;;7.70;99.90;;;;;;5015381;28;20177;-79
2022/11/05 04:48:16;;;;;;;14.07;10.60;;;7.80;99.90;;;;;;5015098;28;20210;-80
2022/11/05 04:50:42;;;;;;;17.57;11.10;;;7.80;99.90;;;;;;5016281;28;20186;-83
2022/11/05 04:53:07;;;;;;;14.87;10.70;;;7.80;99.90;;;;;;5014838;28;20158;-82
2022/11/05 04:55:33;;;;;;;16.83;11.37;;;7.90;99.90;;;;;;5016303;28;20171;-82
2022/11/05 04:57:59;;;;;;;14.60;10.43;;;7.80;99.90;;;;;;5015918;28;20217;-80
2022/11/05 05:00:25;;;;;;;18.17;11.90;;;7.90;99.90;;;;;;5014744;28;20237;-80
2022/11/05 05:02:51;;;;;;;17.57;11.20;;;7.90;99.90;;;;;;5015491;28;20221;-83
2022/11/05 05:05:17;;;;;;;15.77;11.47;;;7.70;99.90;;;;;;5015396;28;20185;-82
2022/11/05 05:07:42;;;;;;;16.80;10.77;;;7.70;99.90;;;;;;5016371;28;20670;-83
2022/11/05 05:10:09;;;;;;;15.33;11.63;;;7.60;99.90;;;;;;5016108;28;20175;-80
2022/11/05 05:12:35;;;;;;;13.90;9.87;;;7.50;99.90;;;;;;5014260;28;20174;-78
2022/11/05 05:15:01;;;;;;;15.90;11.10;;;7.60;99.90;;;;;;5015326;28;20568;-80
2022/11/05 05:17:26;;;;;;;16.60;10.30;;;7.30;99.90;;;;;;5014982;28;20198;-78
2022/11/05 05:22:36;;;;;;;17.70;11.27;;;7.10;99.90;;;;;;5014940;28;20181;-81
2022/11/05 05:25:04;;;;;;;16.37;10.43;;;7.10;99.90;;;;;;5014895;28;20550;-81
2022/11/05 05:27:30;;;;;;;14.63;10.53;;;7.10;99.90;;;;;;5015130;28;20625;-81
2022/11/05 05:29:57;;;;;;;15.90;10.67;;;7.20;99.90;;;;;;5014562;28;20272;-81
2022/11/05 05:32:23;;;;;;;14.77;11.07;;;7.10;99.90;;;;;;5015107;28;20174;-82
2022/11/05 05:34:49;;;;;;;15.60;11.20;;;7.20;99.90;;;;;;5013840;28;20217;-83
2022/11/05 05:37:15;;;;;;;14.93;10.70;;;7.10;99.90;;;;;;5015313;28;20163;-79
2022/11/05 05:39:40;;;;;;;18.33;10.90;;;7.10;99.90;;;;;;5015632;28;20174;-82
2022/11/05 05:42:06;;;;;;;15.77;10.90;;;7.10;99.90;;;;;;5015611;28;20166;-81
2022/11/05 05:44:32;;;;;;;12.83;9.97;;;7.20;99.90;;;;;;5014187;28;20194;-81
2022/11/05 05:46:58;;;;;;;17.63;11.00;;;7.20;99.90;;;;;;5017039;28;20170;-85
2022/11/05 05:49:24;;;;;;;15.00;10.77;;;7.00;99.90;;;;;;5017710;28;20218;-82
2022/11/05 05:51:50;;;;;;;15.83;10.53;;;7.00;99.90;;;;;;5018561;28;20164;-83
2022/11/05 05:54:18;;;;;;;16.00;11.10;;;6.90;99.90;;;;;;5020543;28;20197;-79
2022/11/05 05:56:50;;;;;;;19.40;11.30;;;6.90;99.90;;;;;;5030088;28;20186;-80
2022/11/05 05:59:16;;;;;;;16.57;10.70;;;6.90;99.90;;;;;;5037056;28;20162;-86
2022/11/05 06:01:41;;;;;;;17.23;11.00;;;6.90;99.90;;;;;;5036911;28;20165;-85
2022/11/05 06:04:09;;;;;;;14.40;11.63;;;6.90;99.90;;;;;;5038316;28;20174;-80
2022/11/05 06:06:37;;;;;;;18.07;11.03;;;6.90;99.90;;;;;;5025188;28;20191;-81
2022/11/05 06:09:06;;;;;;;16.03;10.77;;;7.10;99.90;;;;;;5017461;28;20201;-80
2022/11/05 06:11:31;;;;;;;17.63;10.87;;;7.20;99.90;;;;;;5012805;28;20167;-80
2022/11/05 06:14:19;;;;;;;14.87;10.43;;;7.00;99.90;;;;;;5012920;28;20178;-80
2022/11/05 06:16:45;;;;;;;17.73;11.43;;;7.10;99.90;;;;;;5015256;28;20189;-80
2022/11/05 06:19:12;;;;;;;18.67;11.60;;;7.10;99.90;;;;;;5014022;28;20579;-80
2022/11/05 06:21:37;;;;;;;17.23;11.03;;;7.10;99.90;;;;;;5014366;28;20194;-80
2022/11/05 06:24:03;;;;;;;15.60;10.50;;;7.10;99.90;;;;;;5014240;28;20308;-80
2022/11/05 06:26:29;;;;;;;16.37;11.07;;;7.00;99.90;;;;;;5020302;28;20167;-79
2022/11/05 06:28:55;;;;;;;16.67;11.23;;;7.10;99.90;;;;;;5019357;28;20209;-79
2022/11/05 06:31:22;;;;;;;15.00;11.20;;;7.00;99.90;;;;;;5013840;28;20666;-80
2022/11/05 06:33:48;;;;;;;16.53;11.13;;;7.20;99.90;;;;;;5012386;28;20181;-80
2022/11/05 06:36:16;;;;;;;17.70;11.07;;;7.10;99.90;;;;;;5013535;28;20162;-80
2022/11/05 06:38:42;;;;;;;17.80;10.70;;;7.10;99.90;;;;;;5011657;28;20209;-80
2022/11/05 06:41:09;;;;;;;18.90;11.57;;;7.00;99.90;;;;;;5012297;28;20182;-80
2022/11/05 06:43:34;;;;;;;18.40;10.20;;;7.00;99.90;;;;;;5013516;28;20182;-80
2022/11/05 06:46:02;;;;;;;18.07;10.77;;;7.00;99.90;;;;;;5013889;28;20512;-81
2022/11/05 06:48:28;;;;;;;17.37;10.73;;;7.00;99.90;;;;;;5015218;28;20559;-84
2022/11/05 06:50:54;;;;;;;20.43;10.40;;;7.00;99.90;;;;;;5014604;28;20619;-82
2022/11/05 06:53:20;;;;;;;13.93;10.33;;;6.90;99.90;;;;;;5014466;28;20678;-81
2022/11/05 06:55:46;;;;;;;15.53;10.60;;;7.00;99.90;;;;;;5016102;28;20166;-80
2022/11/05 06:58:13;;;;;;;16.33;10.17;;;7.00;99.90;;;;;;5013174;28;20201;-81
2022/11/05 07:00:39;;;;;;;15.87;11.40;;;7.10;99.90;;;;;;5015381;28;20167;-84
2022/11/05 07:03:07;;;;;;;16.17;10.53;;;7.10;99.90;;;;;;5015265;28;20178;-82
2022/11/05 07:05:35;;;;;;;12.63;10.37;;;6.90;99.90;;;;;;5013436;28;20178;-84
2022/11/05 07:08:01;;;;;;;14.87;10.23;;;6.80;99.90;;;;;;5015461;28;20233;-83
2022/11/05 07:10:26;;;;;;;19.47;11.07;;;6.80;99.90;;;;;;5017727;28;20174;-80
2022/11/05 07:12:52;;;;;;;15.30;10.80;;;7.00;99.90;;;;;;5023273;28;20179;-79
2022/11/05 07:15:35;;;;;;;13.03;9.57;;;6.80;99.90;;;;;;5027824;28;20200;-80
2022/11/05 07:18:08;;;;;;;14.80;9.70;;;6.90;99.90;;;;;;5026854;28;20174;-78
2022/11/05 07:20:36;;;;;;;19.67;10.80;;;6.90;99.90;;;;;;5029210;28;20178;-82
2022/11/05 07:23:06;;;;;;;14.63;9.73;;;6.90;99.90;;;;;;5027869;28;20288;-79
2022/11/05 07:25:33;;;;;;;15.13;10.17;;;6.90;99.90;;;;;;5027892;28;20155;-79
2022/11/05 07:28:01;;;;;;;15.17;9.53;;;6.90;99.90;;;;;;5025728;28;20301;-78
2022/11/05 07:30:27;;;;;;;14.40;10.30;;;6.90;99.90;;;;;;5023504;28;20214;-80
2022/11/05 07:32:54;;;;;;;14.50;10.90;;;7.00;99.90;;;;;;5015148;28;20167;-80
2022/11/05 07:35:22;;;;;;;16.60;11.23;;;7.00;99.90;;;;;;5023260;28;20185;-81
2022/11/05 07:37:50;;;;;;;14.47;10.00;;;7.10;99.90;;;;;;5021451;28;20171;-79
2022/11/05 07:40:23;;;;;;;15.93;10.20;;;7.10;99.90;;;;;;5021012;28;20257;-80
2022/11/05 07:42:53;;;;;;;15.33;9.87;;;7.10;99.90;;;;;;5023430;28;20193;-82
2022/11/05 07:45:23;;;;;;;19.43;10.73;;;7.10;99.90;;;;;;5021060;28;20237;-79
2022/11/05 07:47:52;;;;;;;14.83;10.47;;;7.10;99.90;;;;;;5002576;28;20229;-78
2022/11/05 07:50:21;;;;;;;19.50;10.67;;;7.10;99.90;;;;;;5026391;28;20177;-81
2022/11/05 07:52:48;;;;;;;14.50;9.83;;;7.20;99.90;;;;;;5023760;28;20253;-82
2022/11/05 07:55:14;;;;;;;15.40;9.43;;;7.20;99.90;;;;;;5024950;28;20170;-79
2022/11/05 07:57:41;;;;;;;17.30;10.27;;;7.30;99.90;;;;;;5031994;28;20198;-78
2022/11/05 08:00:13;;;;;;;13.97;9.73;;;7.40;99.90;;;;;;5031163;28;20196;-78
2022/11/05 08:02:39;;;;;;;13.07;9.13;;;7.50;99.90;;;;;;5017322;28;20186;-82
2022/11/05 08:05:10;;;;;;;14.67;9.50;;;7.70;99.90;;;;;;5027770;28;20201;-82
2022/11/05 08:07:49;;;;;;;15.40;9.00;;;7.70;99.90;;;;;;5026266;28;20178;-81
2022/11/05 08:10:29;;;;;;;13.43;9.47;;;7.80;99.90;;;;;;5018279;28;20181;-82
2022/11/05 08:12:55;;;;;;;15.50;9.23;;;7.90;99.90;;;;;;5018112;28;20258;-83
2022/11/05 08:15:21;;;;;;;16.70;9.03;;;8.00;99.90;;;;;;5017583;28;20646;-83
2022/11/05 08:17:47;;;;;;;16.67;9.30;;;8.20;99.90;;;;;;5018657;28;20178;-82
2022/11/05 08:20:14;;;;;;;12.03;9.13;;;8.40;99.90;;;;;;5018361;28;20166;-82
2022/11/05 08:22:44;;;;;;;11.77;8.67;;;8.40;99.70;;;;;;5017809;28;20273;-81
2022/11/05 08:25:14;;;;;;;14.70;8.10;;;8.50;98.60;;;;;;5016488;28;20206;-85
2022/11/05 08:27:39;;;;;;;15.67;9.10;;;8.60;97.30;;;;;;5017336;28;20301;-83
2022/11/05 08:30:07;;;;;;;12.53;8.07;;;8.50;96.00;;;;;;5018680;28;20232;-82
2022/11/05 08:32:33;;;;;;;12.20;8.37;;;8.50;96.30;;;;;;5017765;28;20177;-85
2022/11/05 08:34:59;;;;;;;12.43;8.27;;;8.50;95.90;;;;;;5021617;28;20205;-80
2022/11/05 08:37:24;;;;;;;9.97;7.20;;;8.40;96.20;;;;;;5019686;28;20190;-84
2022/11/05 08:39:50;;;;;;;11.67;8.87;;;8.50;96.90;;;;;;5015676;28;20179;-82
2022/11/05 08:42:16;;;;;;;11.27;8.20;;;8.50;96.70;;;;;;5016385;28;20208;-85
2022/11/05 08:44:41;;;;;;;10.30;7.80;;;8.60;96.30;;;;;;5015826;28;20542;-84
2022/11/05 08:47:07;;;;;;;11.70;7.53;;;8.60;96.30;;;;;;5016739;28;20182;-83
2022/11/05 08:49:33;;;;;;;16.07;7.87;;;8.50;96.50;;;;;;5016272;28;20673;-83
2022/11/05 08:51:58;;;;;;;11.67;7.40;;;8.60;96.50;;;;;;5015267;28;20182;-83
2022/11/05 08:54:24;;;;;;;13.63;8.10;;;8.70;96.40;;;;;;5014269;28;20248;-84
2022/11/05 08:56:50;;;;;;;9.40;6.83;;;8.70;96.80;;;;;;5015547;28;20524;-82
2022/11/05 08:59:15;;;;;;;13.13;6.80;;;8.90;96.20;;;;;;5017274;28;20733;-82
2022/11/05 09:01:42;;;;;;;11.07;6.73;;;9.00;95.20;;;;;;5014778;28;20228;-82
2022/11/05 09:04:08;;;;;;;9.90;6.97;;;8.90;94.40;;;;;;5015574;28;20185;-81
2022/11/05 09:06:33;;;;;;;12.23;7.37;;;8.90;93.80;;;;;;5016874;28;20540;-82
2022/11/05 09:08:59;;;;;;;10.30;6.70;;;9.00;93.30;;;;;;5015390;28;20252;-83
2022/11/05 09:11:26;;;;;;;12.03;7.40;;;9.10;91.70;;;;;;5016345;28;20209;-82
2022/11/05 09:13:51;;;;;;;11.90;6.93;;;9.20;91.70;;;;;;5019668;28;20548;-80
2022/11/05 09:16:21;;;;;;;10.47;6.47;;;9.20;90.60;;;;;;5017210;28;20180;-81
2022/11/05 09:18:47;;;;;;;12.60;6.87;;;9.30;90.30;;;;;;5015649;28;20178;-82
2022/11/05 09:21:12;;;;;;;12.03;6.27;;;9.30;89.90;;;;;;5017983;28;20169;-84
2022/11/05 09:23:38;;;;;;;11.37;6.90;;;9.30;89.40;;;;;;5018077;28;20263;-81
2022/11/05 09:26:04;;;;;;;8.83;6.07;;;9.30;89.40;;;;;;5014705;28;20645;-81
2022/11/05 09:28:31;;;;;;;15.37;6.83;;;9.30;88.50;;;;;;5014123;28;20214;-81
2022/11/05 09:30:57;;;;;;;13.97;6.77;;;9.60;89.80;;;;;;5015020;28;20593;-82
2022/11/05 09:33:25;;;;;;;10.20;7.03;;;9.60;88.40;;;;;;5014718;28;20178;-80
2022/11/05 09:35:52;;;;;;;10.57;7.57;;;9.60;87.30;;;;;;5015780;28;20182;-79
2022/11/05 09:38:17;;;;;;;16.63;8.07;;;9.80;87.50;;;;;;5015458;28;20171;-83
2022/11/05 09:41:07;;;;;;;13.33;6.63;;;9.70;85.50;;;;;;5014752;28;20179;-82
2022/11/05 09:43:48;;;;;;;12.73;6.50;;;9.70;84.50;;;;;;5015830;28;20179;-82
2022/11/05 09:46:22;;;;;;;12.80;5.80;;;9.80;85.00;;;;;;5015348;28;20175;-80
2022/11/05 09:48:53;;;;;;;9.80;6.00;;;9.70;84.60;;;;;;5016896;28;20540;-81
2022/11/05 09:51:20;;;;;;;12.47;6.37;;;9.80;84.40;;;;;;5030548;28;20163;-83
2022/11/05 09:53:46;;;;;;;12.53;6.47;;;9.80;83.70;;;;;;5037308;28;20170;-82
2022/11/05 09:56:28;;;;;;;10.03;6.13;;;9.80;83.40;;;;;;5037970;28;20166;-81
2022/11/05 09:59:03;;;;;;;9.33;5.73;;;9.90;82.40;;;;;;5037885;28;20189;-81
2022/11/05 10:01:39;;;;;;;13.77;6.20;;;10.10;80.30;;;;;;5038946;28;20544;-82
2022/11/05 10:04:08;;;;;;;12.37;6.60;;;10.10;78.00;;;;;;5023471;28;20281;-80
2022/11/05 10:06:42;;;;;;;11.33;6.23;;;10.10;78.60;;;;;;5022448;28;20188;-83
2022/11/05 10:09:39;;;;;;;9.53;5.33;;;10.20;76.20;;;;;;5016984;28;20209;-82
2022/11/05 10:12:27;;;;;;;13.30;6.13;;;10.40;71.30;;;;;;5014637;28;20182;-80
2022/11/05 10:15:13;;;;;;;9.53;6.10;;;10.40;68.10;;;;;;5017839;28;20189;-83
2022/11/05 10:17:45;;;;;;;11.37;5.43;;;10.60;65.30;;;;;;5017470;28;20165;-81
2022/11/05 10:20:36;;;;;;;11.03;6.07;;;10.50;62.10;;;;;;5026678;28;20178;-81
2022/11/05 10:23:14;;;;;;;9.83;5.47;;;10.60;61.20;;;;;;5015422;28;20169;-79
2022/11/05 10:25:54;;;;;;;9.67;6.20;;;10.70;60.20;;;;;;5028612;28;20240;-82
2022/11/05 10:28:24;;;;;;;12.60;6.37;;;10.80;59.20;;;;;;5030058;28;20240;-80
2022/11/05 10:31:11;;;;;;;10.93;6.33;;;10.90;56.20;;;;;;5026830;28;20205;-83
2022/11/05 10:33:47;;;;;;;12.87;6.37;;;11.00;52.50;;;;;;5033088;28;20249;-80
2022/11/05 10:36:25;;;;;;;12.80;6.07;;;11.10;50.20;;;;;;5028471;28;20163;-84
2022/11/05 10:38:52;;;;;;;8.10;5.23;;;11.20;48.10;;;;;;5013085;28;20250;-81
2022/11/05 10:42:02;;;;;;;11.80;5.60;;;11.40;47.50;;;;;;5018106;28;20346;-83
2022/11/05 10:44:52;;;;;;;13.27;6.57;;;11.40;44.90;;;;;;5024254;28;20236;-83
2022/11/05 10:48:14;;;;;;;11.93;6.93;;;11.50;42.20;;;;;;5004466;28;20190;-84
2022/11/05 10:50:44;;;;;;;8.63;5.73;;;11.60;39.60;;;;;;5010325;28;20252;-85
2022/11/05 10:53:38;;;;;;;15.50;5.63;;;11.70;35.90;;;;;;5012737;28;20284;-79
2022/11/05 10:56:36;;;;;;;9.40;5.67;;;11.70;31.50;;;;;;4996727;28;20247;-80
2022/11/05 10:59:40;;;;;;;11.20;5.20;;;11.70;29.70;;;;;;5016219;28;20212;-80
2022/11/05 11:02:37;;;;;;;12.47;5.40;;;11.80;27.20;;;;;;4934509;29;20182;-81
2022/11/05 11:05:03;;;;;;;9.90;4.87;;;11.80;23.90;;;;;;4954153;28;20329;-80
2022/11/05 11:07:32;;;;;;;10.13;5.37;;;11.80;25.00;;;;;;5000625;28;20641;-82
2022/11/05 11:10:24;;;;;;;6.57;4.30;;;11.80;23.40;;;;;;4998826;28;20171;-83
2022/11/05 11:12:51;;;;;;;11.50;5.00;;;11.90;19.50;;;;;;5005912;28;20186;-82
2022/11/05 11:15:26;;;;;;;8.63;4.30;;;12.00;16.20;;;;;;5019749;28;20277;-82
2022/11/05 11:17:52;;;;;;;9.77;4.80;;;12.10;16.70;;;;;;5015691;28;20577;-82
2022/11/05 11:20:29;;;;;;;7.00;4.20;;;12.10;17.70;;;;;;5016088;28;20174;-83
2022/11/05 11:23:10;;;;;;;5.90;3.97;;;12.10;18.00;;;;;;5014622;28;20156;-81
2022/11/05 11:25:39;;;;;;;6.93;3.93;;;12.20;17.30;;;;;;5018079;28;20230;-84
2022/11/05 11:28:12;;;;;;;7.87;5.07;;;12.10;19.20;;;;;;5004402;28;20209;-83
2022/11/05 11:30:38;;;;;;;7.40;4.60;;;12.10;20.80;;;;;;5013769;28;20639;-79
2022/11/05 11:33:07;;;;;;;7.30;4.33;;;12.10;22.60;;;;;;5022239;28;20230;-82
2022/11/05 11:35:36;;;;;;;7.23;4.53;;;12.00;24.10;;;;;;5025370;28;20228;-80
2022/11/05 11:38:17;;;;;;;8.37;4.57;;;12.10;22.70;;;;;;5007203;28;20522;-79
2022/11/05 11:41:07;;;;;;;7.60;4.27;;;12.20;23.90;;;;;;5024773;28;20198;-79
2022/11/05 11:43:54;;;;;;;6.37;4.00;;;12.30;23.20;;;;;;5030378;28;20238;-81
2022/11/05 11:46:20;;;;;;;9.00;4.50;;;12.30;20.20;;;;;;5030875;28;20181;-80
2022/11/05 11:49:26;;;;;;;11.00;4.43;;;12.30;24.50;;;;;;5032342;28;20202;-82
2022/11/05 11:52:03;;;;;;;11.43;5.87;;;12.50;22.90;;;;;;5025574;28;20172;-84
2022/11/05 11:54:31;;;;;;;10.43;5.30;;;12.70;19.00;;;;;;5020113;28;20222;-81
2022/11/05 11:57:00;;;;;;;12.93;4.90;;;12.70;18.80;;;;;;5024933;28;20650;-82
2022/11/05 11:59:29;;;;;;;14.23;6.00;;;12.70;19.00;;;;;;5021782;28;20174;-81
2022/11/05 12:02:33;;;;;;;11.30;4.77;;;12.50;20.50;;;;;;5023772;28;20167;-80
2022/11/05 12:05:09;;;;;;;14.13;4.90;;;12.50;22.20;;;;;;5031038;28;20222;-82
2022/11/05 12:07:44;;;;;;;9.80;4.63;;;12.50;24.60;;;;;;5026245;28;20575;-80
2022/11/05 12:10:51;;;;;;;10.07;4.83;;;12.50;21.50;;;;;;5025042;28;20258;-81
2022/11/05 12:13:20;;;;;;;10.90;5.13;;;12.40;25.70;;;;;;5023508;28;20171;-84
2022/11/05 12:15:59;;;;;;;9.77;5.43;;;12.30;28.40;;;;;;5023944;28;20170;-81
2022/11/05 12:18:37;;;;;;;9.07;5.20;;;12.30;29.80;;;;;;5021003;28;20255;-80
2022/11/05 12:21:34;;;;;;;7.70;5.60;;;12.30;33.40;;;;;;5019270;28;20183;-80
2022/11/05 12:24:19;;;;;;;11.03;6.03;;;12.40;34.50;;;;;;5023012;28;20190;-81
2022/11/05 12:27:34;;;;;;;10.37;6.93;;;12.30;36.50;;;;;;5022797;28;20240;-81
2022/11/05 12:30:19;;;;;;;8.53;5.43;;;12.20;40.00;;;;;;4969934;28;20283;-79
2022/11/05 12:32:57;;;;;;;10.77;5.03;;;12.30;39.70;;;;;;5024049;28;20186;-80
2022/11/05 12:35:51;;;;;;;9.80;5.30;;;12.50;36.90;;;;;;5024555;28;20180;-82
2022/11/05 12:38:25;;;;;;;8.07;4.60;;;12.60;36.70;;;;;;5024720;28;20181;-79
2022/11/05 12:41:23;;;;;;;11.20;4.93;;;12.70;36.80;;;;;;5024595;28;20174;-81
2022/11/05 12:44:36;;;;;;;10.17;5.33;;;12.50;37.90;;;;;;5019729;28;20225;-79
2022/11/05 12:47:30;;;;;;;11.67;6.20;;;12.60;35.70;;;;;;4991175;28;20677;-80
2022/11/05 12:50:36;;;;;;;10.33;5.83;;;12.40;35.10;;;;;;5025284;28;20184;-81
2022/11/05 12:53:43;;;;;;;12.47;5.83;;;12.60;37.60;;;;;;5022444;28;20189;-80
2022/11/05 12:56:16;;;;;;;8.93;5.00;;;12.70;36.30;;;;;;5022400;28;20192;-79
2022/11/05 12:58:50;;;;;;;10.43;5.07;;;12.90;34.80;;;;;;5007067;28;20179;-80
2022/11/05 13:01:35;;;;;;;10.43;5.60;;;12.90;33.60;;;;;;5023763;28;20176;-78
2022/11/05 13:04:09;;;;;;;8.27;5.30;;;13.10;29.90;;;;;;5026694;28;20204;-80
2022/11/05 13:06:41;;;;;;;9.97;5.03;;;13.20;27.60;;;;;;5021783;28;20262;-80
2022/11/05 13:09:20;;;;;;;10.17;4.57;;;13.30;23.80;;;;;;5003640;28;20227;-80
2022/11/05 13:12:01;;;;;;;8.90;5.07;;;13.20;22.30;;;;;;5024414;28;20162;-79
2022/11/05 13:15:04;;;;;;;8.23;4.70;;;13.40;22.90;;;;;;5020471;28;20235;-79
2022/11/05 13:18:00;;;;;;;9.83;5.07;;;13.50;18.50;;;;;;5020130;28;20627;-79
2022/11/05 13:20:36;;;;;;;10.37;4.70;;;13.40;17.30;;;;;;5022150;28;20158;-81
2022/11/05 13:23:34;;;;;;;9.57;5.50;;;13.20;20.00;;;;;;5026565;28;20165;-80
2022/11/05 13:26:16;;;;;;;10.33;5.10;;;13.20;22.90;;;;;;4996325;28;20191;-84
2022/11/05 13:29:15;;;;;;;12.10;5.60;;;13.00;23.30;;;;;;5026554;28;20210;-84
2022/11/05 13:31:48;;;;;;;10.90;6.90;;;12.90;27.00;;;;;;5001065;28;20190;-83
2022/11/05 13:34:22;;;;;;;7.20;4.60;;;12.80;29.20;;;;;;5031404;28;20631;-80
2022/11/05 13:39:58;;;;;;;8.47;4.70;;;13.00;28.60;;;;;;5020987;28;20257;-81
2022/11/05 13:42:53;;;;;;;8.57;5.33;;;13.00;29.10;;;;;;5017582;28;20207;-78
2022/11/05 13:45:36;;;;;;;10.57;6.07;;;13.10;29.30;;;;;;5026490;28;20184;-81
2022/11/05 13:48:39;;;;;;;12.33;5.20;;;13.20;29.50;;;;;;5029979;28;20221;-80
2022/11/05 13:51:50;;;;;;;12.53;6.27;;;13.10;29.10;;;;;;5027808;28;20229;-80
2022/11/05 13:54:37;;;;;;;9.40;5.43;;;13.10;30.20;;;;;;5026699;28;20172;-84
2022/11/05 13:57:02;;;;;;;9.73;5.43;;;13.00;32.80;;;;;;5032916;28;20199;-79
2022/11/05 13:59:48;;;;;;;11.30;5.60;;;13.00;35.60;;;;;;5037380;28;20164;-79
2022/11/05 14:02:37;;;;;;;12.10;6.30;;;12.90;36.00;;;;;;5037064;28;20177;-79
2022/11/05 14:05:04;;;;;;;12.80;7.57;;;13.00;34.90;;;;;;5032696;28;20245;-84